Time;durP1;ratioP1;P1;durP2;ratioP2;P2;SDS_P1;SDS_P2;PMS_P1;PMS_P2;Temp;Humidity;BMP_temperature;BMP_pressure;BME280_temperature;BME280_humidity;BME280_pressure;Samples;Min_cycle;Max_cycle;Signal;HPM_P1;HPM_P2
2022/05/08 00:02:07;;;;;;;2.85;2.35;;;;;;;;;;5038964;28;20033;-64
2022/05/08 00:04:33;;;;;;;3.25;2.30;;;;;;;;;;5039292;28;20087;-64
2022/05/08 00:06:59;;;;;;;4.53;2.47;;;;;;;;;;5035891;28;20036;-64
2022/05/08 00:09:25;;;;;;;5.88;2.72;;;;;;;;;;5038137;28;20037;-64
2022/05/08 00:11:52;;;;;;;2.67;2.08;;;;;;;;;;5035786;28;20654;-65
2022/05/08 00:14:18;;;;;;;3.78;2.20;;;;;;;;;;5040592;28;20039;-64
2022/05/08 00:16:44;;;;;;;2.80;2.13;;;;;;;;;;5037426;28;20030;-64
2022/05/08 00:19:10;;;;;;;4.25;2.33;;;;;;;;;;5041343;28;20086;-64
2022/05/08 00:21:36;;;;;;;2.90;2.30;;;;;;;;;;5035973;28;20047;-64
2022/05/08 00:24:02;;;;;;;3.95;2.10;;;;;;;;;;5033232;28;20108;-64
2022/05/08 00:26:28;;;;;;;3.15;2.30;;;;;;;;;;5031978;28;20112;-64
2022/05/08 00:28:53;;;;;;;4.50;2.20;;;;;;;;;;5040450;28;20490;-64
2022/05/08 00:31:19;;;;;;;2.85;2.05;;;;;;;;;;5040938;28;20079;-64
2022/05/08 00:33:45;;;;;;;3.13;2.53;;;;;;;;;;5033393;28;20132;-64
2022/05/08 00:36:10;;;;;;;2.42;2.13;;;;;;;;;;5045201;28;20021;-64
2022/05/08 00:38:36;;;;;;;2.67;2.45;;;;;;;;;;5035312;28;20088;-64
2022/05/08 00:41:02;;;;;;;2.53;2.30;;;;;;;;;;5032722;28;20029;-64
2022/05/08 00:43:32;;;;;;;2.47;2.28;;;;;;;;;;5033969;28;20029;-64
2022/05/08 00:46:06;;;;;;;3.55;2.25;;;;;;;;;;5037853;28;20083;-64
2022/05/08 00:48:33;;;;;;;2.65;2.08;;;;;;;;;;5036102;28;20025;-64
2022/05/08 00:51:04;;;;;;;3.25;2.33;;;;;;;;;;5040380;28;20086;-64
2022/05/08 00:54:00;;;;;;;2.78;2.40;;;;;;;;;;5043390;28;20030;-64
2022/05/08 00:56:26;;;;;;;2.50;2.30;;;;;;;;;;5042231;28;20037;-64
2022/05/08 00:58:52;;;;;;;4.55;2.30;;;;;;;;;;5040151;28;20033;-64
2022/05/08 01:01:18;;;;;;;3.15;2.33;;;;;;;;;;5037311;28;20482;-64
2022/05/08 01:03:45;;;;;;;3.30;2.70;;;;;;;;;;5036969;28;20392;-64
2022/05/08 01:06:12;;;;;;;3.50;2.30;;;;;;;;;;5032381;28;20033;-64
2022/05/08 01:08:40;;;;;;;3.85;2.60;;;;;;;;;;5038306;28;20034;-64
2022/05/08 01:11:08;;;;;;;3.63;2.83;;;;;;;;;;5045003;28;20490;-64
2022/05/08 01:13:34;;;;;;;2.75;2.55;;;;;;;;;;5036327;28;20033;-64
2022/05/08 01:16:00;;;;;;;3.42;2.35;;;;;;;;;;5043860;28;20569;-64
2022/05/08 01:18:27;;;;;;;5.63;2.65;;;;;;;;;;5036463;28;20057;-64
2022/05/08 01:20:53;;;;;;;4.03;2.50;;;;;;;;;;5034698;28;20437;-64
2022/05/08 01:23:21;;;;;;;5.25;2.33;;;;;;;;;;5038704;28;20030;-64
2022/05/08 01:25:56;;;;;;;2.63;2.38;;;;;;;;;;5037101;28;20512;-64
2022/05/08 01:28:24;;;;;;;3.00;2.70;;;;;;;;;;5039399;28;20033;-63
2022/05/08 01:30:52;;;;;;;2.50;2.40;;;;;;;;;;5035093;28;20044;-64
2022/05/08 01:33:19;;;;;;;4.45;3.30;;;;;;;;;;5032690;28;20474;-64
2022/05/08 01:35:46;;;;;;;2.35;2.22;;;;;;;;;;5036853;28;20037;-63
2022/05/08 01:38:15;;;;;;;5.78;2.58;;;;;;;;;;5040167;28;20025;-64
2022/05/08 01:40:41;;;;;;;2.53;2.25;;;;;;;;;;5045402;28;20541;-64
2022/05/08 01:43:07;;;;;;;3.13;2.65;;;;;;;;;;5042973;28;20025;-64
2022/05/08 01:45:33;;;;;;;2.47;2.28;;;;;;;;;;5037506;28;20028;-64
2022/05/08 01:50:44;;;;;;;4.80;2.70;;;;;;;;;;5036525;28;20029;-63
2022/05/08 01:53:10;;;;;;;3.67;3.15;;;;;;;;;;5043382;28;20037;-64
2022/05/08 01:55:36;;;;;;;6.10;2.45;;;;;;;;;;5033915;28;20041;-64
2022/05/08 01:58:03;;;;;;;5.97;2.53;;;;;;;;;;5036351;28;20048;-64
2022/05/08 02:00:30;;;;;;;4.18;2.50;;;;;;;;;;5034929;28;20074;-63
2022/05/08 02:03:00;;;;;;;4.80;2.60;;;;;;;;;;5038942;28;20041;-64
2022/05/08 02:05:28;;;;;;;4.55;2.80;;;;;;;;;;5041050;28;20064;-63
2022/05/08 02:07:55;;;;;;;3.20;1.95;;;;;;;;;;5033862;28;20455;-64
2022/05/08 02:10:21;;;;;;;2.72;2.50;;;;;;;;;;5036395;28;20112;-63
2022/05/08 02:12:47;;;;;;;4.57;2.40;;;;;;;;;;5034998;28;20104;-64
2022/05/08 02:15:14;;;;;;;2.58;2.38;;;;;;;;;;5034745;28;20029;-63
2022/05/08 02:17:40;;;;;;;4.03;2.00;;;;;;;;;;5031101;28;20026;-64
2022/05/08 02:20:08;;;;;;;7.22;2.17;;;;;;;;;;5034365;28;20033;-64
2022/05/08 02:22:34;;;;;;;5.50;2.42;;;;;;;;;;5034516;28;20083;-63
2022/05/08 02:25:00;;;;;;;4.30;2.10;;;;;;;;;;5031870;28;20037;-64
2022/05/08 02:27:33;;;;;;;1.95;1.85;;;;;;;;;;5035985;28;20064;-64
2022/05/08 02:29:59;;;;;;;1.95;1.85;;;;;;;;;;5040136;28;20040;-63
2022/05/08 02:32:25;;;;;;;4.30;2.22;;;;;;;;;;5035584;28;20030;-64
2022/05/08 02:34:50;;;;;;;3.50;2.40;;;;;;;;;;5041634;28;20355;-63
2022/05/08 02:37:16;;;;;;;3.88;2.47;;;;;;;;;;5035411;28;20044;-64
2022/05/08 02:39:42;;;;;;;4.13;2.47;;;;;;;;;;5035410;28;20033;-63
2022/05/08 02:42:07;;;;;;;2.78;2.30;;;;;;;;;;5037764;28;20085;-64
2022/05/08 02:44:33;;;;;;;4.85;2.17;;;;;;;;;;5038677;28;20063;-63
2022/05/08 02:46:59;;;;;;;3.05;2.05;;;;;;;;;;5039636;28;20029;-63
2022/05/08 02:49:24;;;;;;;2.58;1.92;;;;;;;;;;5041593;28;20040;-64
2022/05/08 02:51:50;;;;;;;2.90;2.20;;;;;;;;;;5042191;28;20029;-64
2022/05/08 02:54:16;;;;;;;4.72;2.40;;;;;;;;;;5039594;28;20129;-64
2022/05/08 02:59:26;;;;;;;2.28;2.17;;;;;;;;;;5038348;28;20036;-63
2022/05/08 03:01:51;;;;;;;2.55;2.03;;;;;;;;;;5036942;28;20025;-64
2022/05/08 03:04:18;;;;;;;2.15;2.05;;;;;;;;;;5037410;28;20044;-64
2022/05/08 03:06:43;;;;;;;2.40;2.25;;;;;;;;;;5035165;28;20501;-63
2022/05/08 03:09:09;;;;;;;4.32;2.20;;;;;;;;;;5035333;28;20029;-64
2022/05/08 03:11:36;;;;;;;4.20;2.80;;;;;;;;;;5044701;28;20564;-64
2022/05/08 03:14:02;;;;;;;2.28;2.13;;;;;;;;;;5039318;28;20057;-64
2022/05/08 03:16:28;;;;;;;2.85;2.58;;;;;;;;;;5037743;28;20029;-63
2022/05/08 03:18:55;;;;;;;4.20;2.20;;;;;;;;;;5040754;28;20037;-64
2022/05/08 03:21:22;;;;;;;2.40;2.15;;;;;;;;;;5037494;28;20556;-63
2022/05/08 03:23:48;;;;;;;8.95;2.25;;;;;;;;;;5038665;28;20033;-64
2022/05/08 03:26:15;;;;;;;3.17;2.13;;;;;;;;;;5041387;28;20036;-64
2022/05/08 03:28:42;;;;;;;7.30;2.38;;;;;;;;;;5038615;28;20025;-64
2022/05/08 03:31:09;;;;;;;2.22;2.10;;;;;;;;;;5040445;28;20041;-63
2022/05/08 03:33:36;;;;;;;11.38;2.28;;;;;;;;;;5037008;28;20041;-64
2022/05/08 03:36:02;;;;;;;2.45;2.25;;;;;;;;;;5038301;28;20029;-63
2022/05/08 03:38:28;;;;;;;2.30;2.20;;;;;;;;;;5038268;28;20106;-64
2022/05/08 03:40:54;;;;;;;5.45;2.13;;;;;;;;;;5039389;28;20060;-63
2022/05/08 03:43:23;;;;;;;2.95;2.40;;;;;;;;;;5040138;28;20041;-63
2022/05/08 03:45:49;;;;;;;2.38;2.05;;;;;;;;;;5038122;28;20498;-63
2022/05/08 03:48:20;;;;;;;7.30;2.20;;;;;;;;;;5036443;28;20037;-63
2022/05/08 03:50:46;;;;;;;8.63;2.42;;;;;;;;;;5042423;28;20385;-63
2022/05/08 03:53:12;;;;;;;4.00;2.30;;;;;;;;;;5040105;28;20037;-63
2022/05/08 03:55:38;;;;;;;3.20;2.28;;;;;;;;;;5037094;28;20706;-63
2022/05/08 03:58:04;;;;;;;2.10;1.90;;;;;;;;;;5037239;28;20104;-64
2022/05/08 04:00:30;;;;;;;4.03;2.17;;;;;;;;;;5038512;28;20490;-63
2022/05/08 04:02:56;;;;;;;3.45;2.65;;;;;;;;;;5034068;28;20052;-64
2022/05/08 04:05:22;;;;;;;3.60;2.20;;;;;;;;;;5047905;28;20422;-63
2022/05/08 04:07:48;;;;;;;4.97;2.50;;;;;;;;;;5038024;28;20083;-63
2022/05/08 04:10:14;;;;;;;3.17;2.03;;;;;;;;;;5039088;28;20120;-63
2022/05/08 04:12:42;;;;;;;2.45;2.13;;;;;;;;;;5039980;28;20033;-63
2022/05/08 04:17:57;;;;;;;2.88;2.55;;;;;;;;;;4985945;28;20039;-63
2022/05/08 04:20:23;;;;;;;3.30;2.55;;;;;;;;;;4988644;28;20053;-63
2022/05/08 04:25:33;;;;;;;3.10;2.20;;;;;;;;;;4980611;28;20077;-63
2022/05/08 04:27:59;;;;;;;3.42;2.13;;;;;;;;;;4981993;28;20476;-63
2022/05/08 04:30:24;;;;;;;2.30;2.10;;;;;;;;;;4984310;28;20033;-63
2022/05/08 04:32:50;;;;;;;2.78;2.40;;;;;;;;;;4985809;28;20037;-63
2022/05/08 04:35:16;;;;;;;3.30;2.28;;;;;;;;;;4987170;28;20047;-63
2022/05/08 04:37:41;;;;;;;2.40;2.30;;;;;;;;;;4984096;28;20038;-63
2022/05/08 04:40:08;;;;;;;2.53;2.33;;;;;;;;;;4985079;28;20034;-63
2022/05/08 04:42:33;;;;;;;2.45;2.20;;;;;;;;;;4982756;28;20089;-63
2022/05/08 04:44:59;;;;;;;4.70;2.30;;;;;;;;;;4985405;28;20625;-63
2022/05/08 04:47:27;;;;;;;4.30;2.20;;;;;;;;;;4986242;28;20034;-63
2022/05/08 04:49:53;;;;;;;3.22;2.30;;;;;;;;;;4985896;28;20030;-63
2022/05/08 04:52:18;;;;;;;4.05;2.00;;;;;;;;;;4983107;28;20387;-63
2022/05/08 04:54:44;;;;;;;2.40;2.20;;;;;;;;;;5009637;28;20124;-64
2022/05/08 04:57:10;;;;;;;5.35;2.10;;;;;;;;;;5034266;28;20608;-63
2022/05/08 04:59:36;;;;;;;3.35;2.20;;;;;;;;;;5034170;28;20036;-63
2022/05/08 05:02:02;;;;;;;2.22;2.13;;;;;;;;;;5043486;28;20079;-63
2022/05/08 05:04:28;;;;;;;2.55;2.00;;;;;;;;;;5038010;28;20029;-63
2022/05/08 05:06:54;;;;;;;1.98;1.80;;;;;;;;;;5036275;28;20056;-63
2022/05/08 05:09:20;;;;;;;6.35;1.98;;;;;;;;;;5041485;28;20037;-63
2022/05/08 05:11:46;;;;;;;2.20;2.03;;;;;;;;;;5034647;28;20029;-64
2022/05/08 05:14:12;;;;;;;3.38;2.10;;;;;;;;;;5039958;28;20091;-63
2022/05/08 05:16:38;;;;;;;4.00;2.35;;;;;;;;;;5035434;28;20394;-63
2022/05/08 05:19:06;;;;;;;2.67;1.83;;;;;;;;;;5033150;28;20036;-63
2022/05/08 05:21:32;;;;;;;3.15;2.10;;;;;;;;;;5037162;28;20359;-63
2022/05/08 05:23:58;;;;;;;2.10;1.90;;;;;;;;;;5041456;28;20048;-63
2022/05/08 05:26:24;;;;;;;3.17;2.00;;;;;;;;;;5035825;28;20593;-63
2022/05/08 05:28:51;;;;;;;2.38;1.90;;;;;;;;;;5033440;28;20111;-63
2022/05/08 05:31:17;;;;;;;2.70;1.80;;;;;;;;;;5035959;28;20060;-63
2022/05/08 05:33:46;;;;;;;2.75;2.00;;;;;;;;;;5032225;28;20057;-63
2022/05/08 05:36:12;;;;;;;4.80;1.80;;;;;;;;;;5034302;28;20048;-63
2022/05/08 05:38:38;;;;;;;2.03;1.83;;;;;;;;;;5038544;28;20028;-63
2022/05/08 05:41:04;;;;;;;1.73;1.63;;;;;;;;;;5036850;28;20083;-63
2022/05/08 05:43:30;;;;;;;1.95;1.75;;;;;;;;;;5035472;28;20041;-63
2022/05/08 05:48:40;;;;;;;1.88;1.77;;;;;;;;;;5032649;28;20021;-63
2022/05/08 05:51:05;;;;;;;3.13;2.08;;;;;;;;;;5034980;28;20035;-63
2022/05/08 05:53:32;;;;;;;3.58;1.85;;;;;;;;;;5037595;28;20040;-63
2022/05/08 05:55:58;;;;;;;3.78;1.77;;;;;;;;;;5033766;28;20052;-63
2022/05/08 05:58:24;;;;;;;4.47;1.80;;;;;;;;;;5034422;28;20057;-64
2022/05/08 06:00:49;;;;;;;2.35;1.80;;;;;;;;;;5040748;28;20744;-63
2022/05/08 06:03:17;;;;;;;1.90;1.80;;;;;;;;;;5042006;28;20095;-63
2022/05/08 06:05:43;;;;;;;1.88;1.70;;;;;;;;;;5039554;28;20033;-63
2022/05/08 06:08:09;;;;;;;2.75;1.60;;;;;;;;;;5034907;28;20095;-63
2022/05/08 06:10:35;;;;;;;3.15;1.60;;;;;;;;;;5041889;28;20477;-63
2022/05/08 06:13:02;;;;;;;1.95;1.75;;;;;;;;;;5040728;28;20061;-63
2022/05/08 06:15:28;;;;;;;2.20;1.35;;;;;;;;;;5035028;28;20093;-63
2022/05/08 06:17:55;;;;;;;3.70;1.63;;;;;;;;;;5046668;28;20117;-62
2022/05/08 06:20:21;;;;;;;4.45;1.95;;;;;;;;;;5041386;28;20037;-63
2022/05/08 06:22:47;;;;;;;2.28;2.08;;;;;;;;;;5042499;28;20036;-63
2022/05/08 06:25:12;;;;;;;2.00;1.85;;;;;;;;;;5040747;28;20028;-63
2022/05/08 06:27:38;;;;;;;1.90;1.80;;;;;;;;;;5039091;28;20118;-63
2022/05/08 06:30:07;;;;;;;2.03;1.60;;;;;;;;;;5037265;28;20032;-63
2022/05/08 06:32:34;;;;;;;6.18;1.55;;;;;;;;;;5048888;28;20033;-65
2022/05/08 06:35:00;;;;;;;1.50;1.40;;;;;;;;;;5044709;28;20039;-63
2022/05/08 06:37:27;;;;;;;3.13;1.92;;;;;;;;;;5037989;28;20037;-63
2022/05/08 06:39:53;;;;;;;2.90;1.60;;;;;;;;;;5037167;28;20044;-63
2022/05/08 06:42:19;;;;;;;2.15;1.63;;;;;;;;;;5041041;28;22143;-63
2022/05/08 06:44:45;;;;;;;2.20;1.60;;;;;;;;;;5038811;28;20033;-63
2022/05/08 06:47:10;;;;;;;3.67;1.65;;;;;;;;;;5041431;28;20048;-63
2022/05/08 06:49:36;;;;;;;1.42;1.42;;;;;;;;;;5037656;28;20029;-63
2022/05/08 06:52:02;;;;;;;2.42;1.80;;;;;;;;;;5036006;28;20037;-62
2022/05/08 06:54:28;;;;;;;2.10;1.90;;;;;;;;;;5040584;28;20049;-63
2022/05/08 06:56:56;;;;;;;2.60;2.40;;;;;;;;;;5043148;28;20729;-63
2022/05/08 07:02:07;;;;;;;6.85;4.90;;;;;;;;;;5041340;28;20030;-63
2022/05/08 07:04:33;;;;;;;7.63;5.05;;;;;;;;;;5039797;28;20385;-63
2022/05/08 07:07:00;;;;;;;5.10;3.58;;;;;;;;;;5037275;28;20087;-63
2022/05/08 07:09:25;;;;;;;6.45;3.47;;;;;;;;;;5042027;28;21521;-63
2022/05/08 07:11:51;;;;;;;7.85;4.55;;;;;;;;;;5037395;28;20474;-63
2022/05/08 07:14:17;;;;;;;4.82;3.78;;;;;;;;;;5036687;28;20040;-63
2022/05/08 07:16:43;;;;;;;6.32;3.78;;;;;;;;;;5040609;28;20553;-63
2022/05/08 07:19:10;;;;;;;4.22;3.83;;;;;;;;;;5039615;28;20033;-63
2022/05/08 07:21:36;;;;;;;6.05;3.83;;;;;;;;;;5039004;28;20029;-63
2022/05/08 07:24:02;;;;;;;5.82;3.55;;;;;;;;;;5037878;28;20031;-63
2022/05/08 07:26:28;;;;;;;4.97;3.97;;;;;;;;;;5039372;28;20041;-63
2022/05/08 07:28:53;;;;;;;4.30;3.90;;;;;;;;;;5039556;28;20037;-63
2022/05/08 07:31:19;;;;;;;6.22;3.33;;;;;;;;;;5044195;28;20108;-63
2022/05/08 07:33:45;;;;;;;5.65;3.88;;;;;;;;;;5039376;28;20028;-63
2022/05/08 07:36:13;;;;;;;9.18;3.95;;;;;;;;;;5039381;28;20119;-63
2022/05/08 07:38:41;;;;;;;4.82;4.03;;;;;;;;;;5043633;28;20371;-64
2022/05/08 07:41:08;;;;;;;4.03;3.20;;;;;;;;;;5039037;28;20435;-64
2022/05/08 07:43:34;;;;;;;4.32;3.92;;;;;;;;;;5041556;28;20032;-63
2022/05/08 07:46:00;;;;;;;3.38;3.08;;;;;;;;;;5041789;28;20378;-63
2022/05/08 07:48:26;;;;;;;2.50;2.30;;;;;;;;;;5039787;28;20032;-63
2022/05/08 07:50:52;;;;;;;1.98;1.88;;;;;;;;;;5037490;28;20163;-63
2022/05/08 07:53:18;;;;;;;3.47;2.00;;;;;;;;;;5041331;28;20044;-64
2022/05/08 07:55:51;;;;;;;2.35;1.60;;;;;;;;;;5043920;28;20037;-63
2022/05/08 07:58:16;;;;;;;1.98;1.60;;;;;;;;;;5039624;28;20061;-63
2022/05/08 08:00:42;;;;;;;2.08;1.85;;;;;;;;;;5040503;28;20138;-63
2022/05/08 08:03:08;;;;;;;2.33;1.48;;;;;;;;;;5041929;28;20381;-63
2022/05/08 08:05:33;;;;;;;3.85;2.00;;;;;;;;;;5039891;28;20067;-64
2022/05/08 08:07:59;;;;;;;2.00;1.80;;;;;;;;;;5035784;28;20482;-64
2022/05/08 08:10:25;;;;;;;2.17;1.98;;;;;;;;;;5038223;28;20032;-64
2022/05/08 08:12:50;;;;;;;2.58;2.38;;;;;;;;;;5036639;28;20534;-64
2022/05/08 08:15:16;;;;;;;5.53;2.50;;;;;;;;;;5036049;28;20029;-63
2022/05/08 08:17:42;;;;;;;2.78;2.40;;;;;;;;;;5043351;28;20385;-64
2022/05/08 08:20:08;;;;;;;2.75;2.20;;;;;;;;;;5041087;28;20025;-64
2022/05/08 08:22:34;;;;;;;2.58;2.35;;;;;;;;;;5042633;28;20029;-64
2022/05/08 08:25:00;;;;;;;5.03;2.17;;;;;;;;;;5037872;28;20033;-64
2022/05/08 08:27:27;;;;;;;2.35;2.15;;;;;;;;;;5034399;28;20078;-64
2022/05/08 08:29:54;;;;;;;6.03;2.25;;;;;;;;;;5040934;28;20028;-64
2022/05/08 08:32:21;;;;;;;3.90;2.88;;;;;;;;;;5042621;28;20045;-64
2022/05/08 08:34:48;;;;;;;2.67;2.25;;;;;;;;;;5034763;28;20033;-64
2022/05/08 08:37:14;;;;;;;4.60;2.45;;;;;;;;;;5039409;28;20083;-64
2022/05/08 08:39:40;;;;;;;3.25;2.15;;;;;;;;;;5045246;28;20024;-64
2022/05/08 08:42:25;;;;;;;6.68;2.30;;;;;;;;;;5032397;28;20029;-64
2022/05/08 08:47:42;;;;;;;9.57;2.03;;;;;;;;;;5039672;28;20029;-64
2022/05/08 08:50:09;;;;;;;2.08;1.88;;;;;;;;;;5043838;28;20547;-64
2022/05/08 08:52:36;;;;;;;7.00;2.17;;;;;;;;;;5036129;28;20033;-64
2022/05/08 08:55:02;;;;;;;5.65;2.22;;;;;;;;;;5042233;28;20064;-64
2022/05/08 08:57:28;;;;;;;2.10;1.60;;;;;;;;;;5039930;28;20025;-64
2022/05/08 08:59:54;;;;;;;2.10;1.98;;;;;;;;;;5038269;28;20044;-64
2022/05/08 09:02:20;;;;;;;2.92;2.00;;;;;;;;;;5032434;28;20031;-64
2022/05/08 09:04:49;;;;;;;3.75;2.03;;;;;;;;;;5033774;28;20029;-64
2022/05/08 09:07:33;;;;;;;1.80;1.70;;;;;;;;;;5035242;28;20079;-64
2022/05/08 09:10:26;;;;;;;3.75;1.80;;;;;;;;;;5040253;28;20033;-64
2022/05/08 09:12:52;;;;;;;1.65;1.55;;;;;;;;;;5039081;28;20049;-64
2022/05/08 09:15:29;;;;;;;2.28;1.80;;;;;;;;;;5039190;28;20692;-64
2022/05/08 09:17:59;;;;;;;2.33;1.88;;;;;;;;;;5032474;28;20033;-64
2022/05/08 09:20:31;;;;;;;2.33;1.90;;;;;;;;;;5035477;28;20120;-65
2022/05/08 09:23:21;;;;;;;4.55;2.00;;;;;;;;;;5038337;28;20083;-65
2022/05/08 09:25:51;;;;;;;2.53;1.77;;;;;;;;;;5035461;28;20505;-65
2022/05/08 09:28:25;;;;;;;3.13;1.70;;;;;;;;;;5039900;28;20055;-64
2022/05/08 09:30:58;;;;;;;4.93;2.22;;;;;;;;;;5036806;28;20090;-64
2022/05/08 09:33:28;;;;;;;6.78;3.80;;;;;;;;;;5038219;28;20490;-64
2022/05/08 09:35:55;;;;;;;8.95;2.72;;;;;;;;;;5036737;28;20061;-64
2022/05/08 09:38:21;;;;;;;9.25;3.03;;;;;;;;;;5042176;28;20136;-64
2022/05/08 09:41:06;;;;;;;5.05;2.78;;;;;;;;;;5036206;28;20033;-64
2022/05/08 09:43:34;;;;;;;2.45;1.65;;;;;;;;;;5036957;28;20463;-64
2022/05/08 09:46:02;;;;;;;2.25;1.85;;;;;;;;;;5033724;28;20087;-65
2022/05/08 09:48:29;;;;;;;3.42;2.00;;;;;;;;;;5043347;28;20021;-65
2022/05/08 09:50:57;;;;;;;7.53;2.17;;;;;;;;;;5041738;28;20543;-66
2022/05/08 09:53:24;;;;;;;3.83;2.20;;;;;;;;;;5044942;28;20026;-66
2022/05/08 09:55:54;;;;;;;2.08;1.70;;;;;;;;;;5039534;28;20049;-66
2022/05/08 09:58:21;;;;;;;1.80;1.70;;;;;;;;;;5044004;28;20032;-66
2022/05/08 10:00:57;;;;;;;3.38;1.73;;;;;;;;;;5045708;28;20119;-66
2022/05/08 10:03:23;;;;;;;4.47;2.58;;;;;;;;;;5041239;28;20051;-66
2022/05/08 10:05:50;;;;;;;5.10;2.20;;;;;;;;;;5040591;28;20045;-67
2022/05/08 10:08:28;;;;;;;3.78;2.40;;;;;;;;;;5041709;28;20570;-66
2022/05/08 10:13:57;;;;;;;2.42;2.22;;;;;;;;;;5039631;28;20037;-66
2022/05/08 10:16:41;;;;;;;5.25;2.17;;;;;;;;;;5038781;28;20036;-66
2022/05/08 10:19:22;;;;;;;2.97;2.20;;;;;;;;;;5040688;28;20044;-65
2022/05/08 10:21:57;;;;;;;6.53;2.40;;;;;;;;;;5038961;28;20035;-65
2022/05/08 10:24:32;;;;;;;2.70;2.42;;;;;;;;;;5042912;28;20033;-65
2022/05/08 10:27:16;;;;;;;2.63;2.42;;;;;;;;;;5040117;28;20090;-65
2022/05/08 10:30:02;;;;;;;4.45;2.60;;;;;;;;;;5041258;28;20124;-65
2022/05/08 10:32:29;;;;;;;5.18;2.80;;;;;;;;;;5042005;28;20043;-65
2022/05/08 10:35:13;;;;;;;3.70;2.63;;;;;;;;;;5043486;28;20062;-65
2022/05/08 10:37:51;;;;;;;2.03;1.60;;;;;;;;;;5045097;28;20060;-67
2022/05/08 10:40:23;;;;;;;2.67;2.00;;;;;;;;;;5042324;28;20124;-65
2022/05/08 10:42:55;;;;;;;2.05;1.38;;;;;;;;;;5041162;28;20135;-65
2022/05/08 10:45:47;;;;;;;1.52;1.42;;;;;;;;;;5038889;28;20044;-65
2022/05/08 10:48:20;;;;;;;5.07;2.00;;;;;;;;;;5036079;28;20130;-64
2022/05/08 10:50:55;;;;;;;4.10;2.38;;;;;;;;;;5039342;28;20039;-65
2022/05/08 10:53:25;;;;;;;3.63;3.28;;;;;;;;;;5043366;28;20488;-64
2022/05/08 10:55:52;;;;;;;2.58;1.80;;;;;;;;;;5036848;28;21161;-63
2022/05/08 10:58:18;;;;;;;2.67;1.83;;;;;;;;;;5036529;28;20040;-65
2022/05/08 11:00:44;;;;;;;3.67;2.00;;;;;;;;;;5043056;28;20040;-66
2022/05/08 11:03:10;;;;;;;8.05;2.03;;;;;;;;;;5041355;28;20025;-64
2022/05/08 11:05:39;;;;;;;2.28;1.75;;;;;;;;;;5042442;28;20079;-65
2022/05/08 11:08:05;;;;;;;2.95;2.30;;;;;;;;;;5039031;28;20021;-65
2022/05/08 11:10:38;;;;;;;8.52;2.30;;;;;;;;;;5039714;28;20513;-65
2022/05/08 11:13:10;;;;;;;5.07;2.30;;;;;;;;;;5042761;28;20033;-64
2022/05/08 11:15:38;;;;;;;3.00;2.72;;;;;;;;;;5040173;28;20041;-66
2022/05/08 11:18:06;;;;;;;5.38;2.78;;;;;;;;;;5041162;28;20056;-65
2022/05/08 11:20:33;;;;;;;4.45;2.67;;;;;;;;;;5039383;28;20025;-65
2022/05/08 11:22:59;;;;;;;2.42;2.08;;;;;;;;;;5041398;28;20033;-64
2022/05/08 11:25:25;;;;;;;4.03;2.15;;;;;;;;;;5040858;28;20409;-65
2022/05/08 11:27:55;;;;;;;3.42;2.10;;;;;;;;;;5042017;28;20047;-65
2022/05/08 11:30:32;;;;;;;3.65;2.10;;;;;;;;;;5040235;28;20033;-64
2022/05/08 11:36:06;;;;;;;2.72;1.70;;;;;;;;;;5042790;28;20052;-64
2022/05/08 11:38:44;;;;;;;4.07;2.15;;;;;;;;;;5042840;28;20111;-64
2022/05/08 11:41:17;;;;;;;4.50;2.40;;;;;;;;;;5039560;28;20042;-64
2022/05/08 11:43:43;;;;;;;2.17;2.00;;;;;;;;;;5043536;28;20474;-65
2022/05/08 11:46:17;;;;;;;2.70;2.15;;;;;;;;;;5040224;28;20104;-64
2022/05/08 11:48:44;;;;;;;3.88;2.60;;;;;;;;;;5038339;28;20025;-64
2022/05/08 11:51:10;;;;;;;5.28;2.35;;;;;;;;;;5035294;28;20103;-66
2022/05/08 11:53:49;;;;;;;5.47;2.50;;;;;;;;;;5040305;28;20041;-65
2022/05/08 11:56:32;;;;;;;4.18;2.10;;;;;;;;;;5042431;28;20092;-65
2022/05/08 11:59:00;;;;;;;2.78;2.22;;;;;;;;;;5037678;28;20059;-64
2022/05/08 12:01:34;;;;;;;2.85;2.35;;;;;;;;;;5040098;28;20120;-65
2022/05/08 12:04:26;;;;;;;3.83;2.22;;;;;;;;;;5042418;28;20064;-64
2022/05/08 12:06:56;;;;;;;4.35;2.50;;;;;;;;;;5040178;28;20040;-63
2022/05/08 12:09:22;;;;;;;3.58;2.45;;;;;;;;;;5039019;28;20056;-64
2022/05/08 12:11:48;;;;;;;4.85;1.88;;;;;;;;;;5041363;28;20083;-64
2022/05/08 12:14:13;;;;;;;1.92;1.80;;;;;;;;;;5040535;28;20547;-64
2022/05/08 12:16:39;;;;;;;5.70;2.08;;;;;;;;;;5035421;28;20041;-63
2022/05/08 12:19:09;;;;;;;5.38;1.80;;;;;;;;;;5039891;28;20428;-65
2022/05/08 12:21:34;;;;;;;3.17;2.10;;;;;;;;;;5038625;28;20040;-64
2022/05/08 12:24:13;;;;;;;3.42;1.92;;;;;;;;;;5039413;28;20547;-65
2022/05/08 12:26:39;;;;;;;1.83;1.52;;;;;;;;;;5041748;28;20497;-66
2022/05/08 12:29:07;;;;;;;4.18;1.80;;;;;;;;;;5037288;28;20048;-66
2022/05/08 12:31:34;;;;;;;3.35;2.00;;;;;;;;;;5039090;28;20024;-64
2022/05/08 12:34:00;;;;;;;3.55;1.85;;;;;;;;;;5036474;28;20077;-66
2022/05/08 12:36:26;;;;;;;1.60;1.50;;;;;;;;;;5041155;28;20056;-66
2022/05/08 12:38:52;;;;;;;3.70;1.92;;;;;;;;;;5037748;28;20095;-63
2022/05/08 12:41:18;;;;;;;2.17;1.60;;;;;;;;;;5039799;28;20034;-65
2022/05/08 12:43:43;;;;;;;2.45;1.90;;;;;;;;;;5043963;28;20056;-67
2022/05/08 12:46:09;;;;;;;2.22;2.00;;;;;;;;;;5042511;28;20501;-66
2022/05/08 12:48:35;;;;;;;3.08;1.88;;;;;;;;;;5039043;28;20099;-66
2022/05/08 12:51:00;;;;;;;4.80;2.00;;;;;;;;;;5031512;28;20064;-64
2022/05/08 12:53:26;;;;;;;4.38;2.00;;;;;;;;;;5033906;28;20037;-66
2022/05/08 12:55:53;;;;;;;2.22;1.98;;;;;;;;;;5041649;28;20041;-64
2022/05/08 13:01:04;;;;;;;2.83;1.88;;;;;;;;;;5037665;28;20025;-64
2022/05/08 13:03:30;;;;;;;4.13;2.05;;;;;;;;;;5039387;28;20099;-66
2022/05/08 13:05:55;;;;;;;5.13;2.40;;;;;;;;;;5037975;28;20065;-65
2022/05/08 13:08:21;;;;;;;5.88;2.13;;;;;;;;;;5042089;28;20114;-66
2022/05/08 13:10:47;;;;;;;4.22;1.85;;;;;;;;;;5039547;28;20500;-66
2022/05/08 13:13:13;;;;;;;2.85;1.67;;;;;;;;;;5038700;28;20091;-64
2022/05/08 13:15:39;;;;;;;6.85;2.25;;;;;;;;;;5041625;28;20029;-64
2022/05/08 13:18:05;;;;;;;2.22;1.67;;;;;;;;;;5034858;28;20390;-64
2022/05/08 13:20:31;;;;;;;2.67;1.75;;;;;;;;;;5038561;28;20474;-64
2022/05/08 13:22:56;;;;;;;4.40;1.92;;;;;;;;;;5038256;28;20044;-66
2022/05/08 13:25:22;;;;;;;3.17;1.90;;;;;;;;;;5038175;28;20025;-66
2022/05/08 13:27:48;;;;;;;2.22;1.70;;;;;;;;;;5036945;28;20088;-66
2022/05/08 13:30:14;;;;;;;4.00;1.90;;;;;;;;;;5038583;28;20135;-65
2022/05/08 13:32:40;;;;;;;7.22;2.05;;;;;;;;;;5038653;28;20655;-66
2022/05/08 13:35:06;;;;;;;2.28;1.80;;;;;;;;;;5037321;28;20036;-66
2022/05/08 13:37:32;;;;;;;5.95;2.00;;;;;;;;;;5036260;28;20033;-64
2022/05/08 13:40:01;;;;;;;3.42;2.10;;;;;;;;;;5035071;28;20033;-65
2022/05/08 13:42:27;;;;;;;4.05;2.15;;;;;;;;;;5034489;28;20041;-66
2022/05/08 13:44:55;;;;;;;4.65;1.67;;;;;;;;;;5034945;28;20033;-64
2022/05/08 13:47:21;;;;;;;4.38;2.22;;;;;;;;;;5036505;28;20533;-66
2022/05/08 13:49:47;;;;;;;4.35;2.20;;;;;;;;;;5037695;28;20762;-65
2022/05/08 13:52:12;;;;;;;6.20;2.30;;;;;;;;;;5043999;28;20035;-64
2022/05/08 13:54:38;;;;;;;3.22;2.13;;;;;;;;;;5039983;28;20045;-64
2022/05/08 13:57:05;;;;;;;4.75;2.08;;;;;;;;;;5036354;28;20034;-66
2022/05/08 13:59:31;;;;;;;6.97;2.53;;;;;;;;;;5038152;28;20028;-67
2022/05/08 14:01:57;;;;;;;2.85;2.50;;;;;;;;;;5037319;28;20048;-67
2022/05/08 14:04:22;;;;;;;10.00;3.17;;;;;;;;;;5041102;28;20041;-65
2022/05/08 14:06:50;;;;;;;5.05;2.72;;;;;;;;;;5034036;28;20043;-67
2022/05/08 14:09:17;;;;;;;9.77;3.00;;;;;;;;;;5036749;28;20116;-71
2022/05/08 14:11:43;;;;;;;6.72;2.85;;;;;;;;;;5036495;28;20044;-67
2022/05/08 14:14:09;;;;;;;6.72;2.67;;;;;;;;;;5037671;28;20033;-69
2022/05/08 14:16:34;;;;;;;8.05;2.97;;;;;;;;;;5034830;28;20083;-68
2022/05/08 14:19:01;;;;;;;5.05;2.72;;;;;;;;;;5038036;28;20075;-69
2022/05/08 14:21:26;;;;;;;5.43;2.88;;;;;;;;;;5035778;28;20082;-68
2022/05/08 14:23:52;;;;;;;5.75;2.65;;;;;;;;;;5033788;28;20487;-68
2022/05/08 14:26:18;;;;;;;6.82;2.55;;;;;;;;;;5036557;28;20482;-68
2022/05/08 14:28:44;;;;;;;3.95;2.15;;;;;;;;;;5037700;28;20120;-68
2022/05/08 14:36:39;;;;;;;7.05;2.90;;;;;;;;;;5036377;28;20057;-68
2022/05/08 14:39:05;;;;;;;4.10;2.55;;;;;;;;;;5038927;28;20098;-69
2022/05/08 14:41:31;;;;;;;8.23;2.63;;;;;;;;;;5044684;28;20481;-69
2022/05/08 14:43:57;;;;;;;5.22;2.70;;;;;;;;;;5042887;28;20573;-68
2022/05/08 14:46:22;;;;;;;7.25;2.90;;;;;;;;;;5042149;28;20104;-68
2022/05/08 14:48:48;;;;;;;6.32;2.97;;;;;;;;;;5043898;28;20105;-68
2022/05/08 14:51:14;;;;;;;7.57;3.28;;;;;;;;;;5043548;28;20106;-69
2022/05/08 14:53:40;;;;;;;5.18;3.30;;;;;;;;;;5044097;28;20059;-68
2022/05/08 14:56:06;;;;;;;6.32;3.08;;;;;;;;;;5045248;28;20041;-68
2022/05/08 14:58:32;;;;;;;5.10;3.08;;;;;;;;;;5042573;28;20086;-68
2022/05/08 15:00:58;;;;;;;6.55;3.17;;;;;;;;;;5039849;28;20035;-69
2022/05/08 15:03:24;;;;;;;14.90;3.60;;;;;;;;;;5039063;28;20029;-69
2022/05/08 15:05:50;;;;;;;8.63;3.15;;;;;;;;;;5041557;28;20099;-69
2022/05/08 15:08:16;;;;;;;5.85;3.63;;;;;;;;;;5038983;28;20024;-68
2022/05/08 15:10:42;;;;;;;6.65;3.80;;;;;;;;;;5035570;28;21588;-68
2022/05/08 15:15:43;;;;;;;6.90;3.90;;;;;;;;;;4727241;23;20077;-67
2022/05/08 15:20:55;;;;;;;8.65;4.70;;;;;;;;;;4956782;28;20067;-68
2022/05/08 15:23:24;;;;;;;7.40;4.43;;;;;;;;;;4965389;28;20535;-67
2022/05/08 15:25:49;;;;;;;12.43;4.78;;;;;;;;;;4957489;28;20035;-68